createdAt,value
2017-09-05T00:00:47.946Z,86.30
2017-09-05T00:03:15.572Z,87.00
2017-09-05T00:05:43.236Z,87.20
2017-09-05T00:11:26.998Z,86.90
2017-09-05T00:13:57.064Z,87.80
2017-09-05T00:16:30.432Z,87.70
2017-09-05T00:19:08.747Z,88.00
2017-09-05T00:24:35.527Z,87.50
2017-09-05T00:27:03.168Z,87.70
2017-09-05T00:29:30.811Z,87.40
2017-09-05T00:31:58.484Z,88.00
2017-09-05T00:34:26.118Z,87.80
2017-09-05T00:36:53.756Z,87.60
2017-09-05T00:39:21.399Z,87.60
2017-09-05T00:41:49.037Z,87.80
2017-09-05T00:44:16.709Z,87.80
2017-09-05T00:46:44.343Z,88.00
2017-09-05T00:49:11.973Z,88.40
2017-09-05T00:51:39.621Z,88.80
2017-09-05T00:54:07.244Z,88.70
2017-09-05T00:56:34.904Z,88.80
2017-09-05T00:59:02.565Z,89.70
2017-09-05T01:01:30.192Z,88.30
2017-09-05T01:03:57.857Z,88.60
2017-09-05T01:06:25.489Z,89.00
2017-09-05T01:08:53.121Z,88.20
2017-09-05T01:11:20.771Z,88.70
2017-09-05T01:13:49.299Z,88.10
2017-09-05T01:16:17.817Z,88.70
2017-09-05T01:18:45.466Z,88.40
2017-09-05T01:21:13.150Z,88.20
2017-09-05T01:23:40.758Z,88.70
2017-09-05T01:26:08.404Z,88.70
2017-09-05T01:28:36.032Z,88.10
2017-09-05T01:31:03.670Z,88.30
2017-09-05T01:33:31.315Z,88.40
2017-09-05T01:35:58.961Z,89.10
2017-09-05T01:38:26.579Z,89.70
2017-09-05T01:40:54.239Z,88.90
2017-09-05T01:43:21.868Z,89.50
2017-09-05T01:45:49.547Z,89.20
2017-09-05T01:48:17.214Z,88.90
2017-09-05T01:50:44.835Z,90.30
2017-09-05T01:53:12.466Z,90.80
2017-09-05T01:55:40.111Z,90.60
2017-09-05T01:58:07.727Z,89.60
2017-09-05T02:00:35.353Z,89.90
2017-09-05T02:03:03.019Z,88.70
2017-09-05T02:05:30.652Z,89.40
2017-09-05T02:07:58.372Z,89.30
2017-09-05T02:10:26.043Z,88.90
2017-09-05T02:12:53.677Z,89.20
2017-09-05T02:15:21.298Z,89.20
2017-09-05T02:17:48.977Z,90.30
2017-09-05T02:20:16.608Z,89.00
2017-09-05T02:22:44.229Z,89.20
2017-09-05T02:25:11.872Z,88.30
2017-09-05T02:27:39.509Z,89.10
2017-09-05T02:30:07.167Z,88.70
2017-09-05T02:32:34.785Z,88.70
2017-09-05T02:35:02.413Z,89.40
2017-09-05T02:37:30.062Z,89.70
2017-09-05T02:39:57.696Z,89.60
2017-09-05T02:42:25.375Z,90.30
2017-09-05T02:44:53.017Z,90.50
2017-09-05T02:47:20.649Z,90.80
2017-09-05T02:49:48.294Z,90.30
2017-09-05T02:52:15.916Z,90.20
2017-09-05T02:54:43.572Z,89.70
2017-09-05T02:57:11.231Z,89.50
2017-09-05T02:59:38.847Z,90.10
2017-09-05T03:02:06.499Z,89.70
2017-09-05T03:04:34.119Z,89.90
2017-09-05T03:07:01.782Z,90.00
2017-09-05T03:09:29.419Z,89.20
2017-09-05T03:11:57.048Z,89.20
2017-09-05T03:14:24.706Z,89.10
2017-09-05T03:16:52.332Z,88.60
2017-09-05T03:19:20.015Z,89.00
2017-09-05T03:21:47.641Z,88.60
2017-09-05T03:24:15.263Z,89.00
2017-09-05T03:26:42.912Z,87.80
2017-09-05T03:29:10.546Z,87.60
2017-09-05T03:31:38.212Z,88.50
2017-09-05T03:34:05.837Z,88.10
2017-09-05T03:36:33.470Z,88.30
2017-09-05T03:39:01.122Z,88.40
2017-09-05T03:41:28.755Z,88.90
2017-09-05T03:43:56.424Z,89.60
2017-09-05T03:46:24.051Z,89.30
2017-09-05T03:48:51.675Z,89.70
2017-09-05T03:51:19.427Z,90.50
2017-09-05T03:53:47.068Z,90.50
2017-09-05T03:56:14.821Z,90.70
2017-09-05T03:58:42.445Z,90.60
2017-09-05T04:01:10.184Z,90.30
2017-09-05T04:03:37.830Z,90.00
2017-09-05T04:06:05.456Z,89.90
2017-09-05T04:08:33.128Z,90.80
2017-09-05T04:11:00.743Z,91.10
2017-09-05T04:13:28.373Z,90.50
2017-09-05T04:15:56.013Z,90.70
2017-09-05T04:18:23.641Z,90.60
2017-09-05T04:20:51.291Z,90.20
2017-09-05T04:23:18.922Z,90.00
2017-09-05T04:25:46.548Z,90.90
2017-09-05T04:28:14.200Z,90.00
2017-09-05T04:30:41.832Z,89.70
2017-09-05T04:33:09.480Z,89.80
2017-09-05T04:35:37.096Z,89.60
2017-09-05T04:38:04.729Z,89.80
2017-09-05T04:40:32.385Z,90.60
2017-09-05T04:43:00.013Z,90.50
2017-09-05T04:45:27.695Z,90.00
2017-09-05T04:47:56.153Z,89.40
2017-09-05T04:50:23.780Z,89.30
2017-09-05T04:52:51.437Z,89.40
2017-09-05T04:55:19.159Z,89.50
2017-09-05T04:57:46.864Z,89.70
2017-09-05T05:00:14.505Z,89.50
2017-09-05T05:02:42.129Z,89.30
2017-09-05T05:05:09.780Z,89.10
2017-09-05T05:07:37.401Z,89.40
2017-09-05T05:10:05.065Z,89.00
2017-09-05T05:12:32.696Z,89.40
2017-09-05T05:15:00.337Z,89.60
2017-09-05T05:17:27.999Z,89.60
2017-09-05T05:19:55.619Z,88.90
2017-09-05T05:22:23.289Z,88.20
2017-09-05T05:24:50.921Z,87.60
2017-09-05T05:27:18.556Z,87.00
2017-09-05T05:29:46.204Z,87.60
2017-09-05T05:32:13.841Z,86.70
2017-09-05T05:34:41.517Z,86.80
2017-09-05T05:37:09.135Z,86.80
2017-09-05T05:39:36.765Z,86.60
2017-09-05T05:42:04.421Z,86.10
2017-09-05T05:44:32.039Z,84.90
2017-09-05T05:46:59.701Z,84.80
2017-09-05T05:49:27.327Z,83.00
2017-09-05T05:51:54.958Z,82.00
2017-09-05T05:54:22.616Z,81.60
2017-09-05T05:56:50.243Z,80.80
2017-09-05T05:59:17.908Z,82.20
2017-09-05T06:01:45.546Z,81.20
2017-09-05T06:04:13.177Z,79.40
2017-09-05T06:06:40.834Z,77.60
2017-09-05T06:09:08.471Z,77.30
2017-09-05T06:11:36.136Z,77.80
2017-09-05T06:14:03.781Z,77.80
2017-09-05T06:16:31.408Z,76.50
2017-09-05T06:18:59.071Z,75.10
2017-09-05T06:21:26.700Z,73.70
2017-09-05T06:23:54.376Z,73.90
2017-09-05T06:26:22.012Z,70.90
2017-09-05T06:28:49.650Z,71.20
2017-09-05T06:31:17.310Z,67.00
2017-09-05T06:33:44.937Z,60.30
2017-09-05T06:36:12.599Z,60.30
2017-09-05T06:38:40.252Z,60.00
2017-09-05T06:41:07.894Z,55.70
2017-09-05T06:43:35.565Z,56.20
2017-09-05T06:46:03.206Z,49.80
2017-09-05T06:48:30.867Z,44.90
2017-09-05T06:50:58.480Z,36.90
2017-09-05T06:53:26.084Z,35.00
2017-09-05T06:55:53.727Z,29.50
2017-09-05T06:58:21.337Z,26.10
2017-09-05T07:00:48.970Z,26.60
2017-09-05T07:03:16.581Z,23.00
2017-09-05T07:05:44.206Z,21.40
2017-09-05T07:08:11.836Z,23.20
2017-09-05T07:10:39.458Z,24.50
2017-09-05T07:13:07.104Z,22.30
2017-09-05T07:15:34.700Z,20.10
2017-09-05T07:18:02.301Z,21.10
2017-09-05T07:20:29.926Z,19.80
2017-09-05T07:22:57.520Z,19.10
2017-09-05T07:25:25.148Z,19.80
2017-09-05T07:27:52.752Z,18.10
2017-09-05T07:30:20.362Z,18.20
2017-09-05T07:32:48.001Z,17.50
2017-09-05T07:35:15.609Z,16.50
2017-09-05T07:37:43.257Z,18.10
2017-09-05T07:40:10.847Z,17.50
2017-09-05T07:42:38.444Z,17.70
2017-09-05T07:45:06.059Z,16.60
2017-09-05T07:47:33.673Z,17.20
2017-09-05T07:50:01.304Z,17.30
2017-09-05T07:52:28.899Z,16.90
2017-09-05T07:54:56.506Z,16.20
2017-09-05T07:57:24.132Z,15.50
2017-09-05T07:59:51.739Z,13.90
2017-09-05T08:02:19.371Z,15.40
2017-09-05T08:04:46.978Z,14.40
2017-09-05T08:07:14.584Z,14.30
2017-09-05T08:09:42.212Z,14.10
2017-09-05T08:12:09.826Z,14.50
2017-09-05T08:14:37.472Z,14.00
2017-09-05T08:17:05.072Z,14.10
2017-09-05T08:19:32.680Z,15.20
2017-09-05T08:22:00.319Z,13.80
2017-09-05T08:24:27.910Z,14.00
2017-09-05T08:26:55.556Z,14.00
2017-09-05T08:29:23.215Z,12.60
2017-09-05T08:31:50.828Z,12.90
2017-09-05T08:34:18.457Z,13.40
2017-09-05T08:36:46.058Z,12.70
2017-09-05T08:39:13.710Z,12.00
2017-09-05T08:41:41.309Z,12.70
2017-09-05T08:44:08.936Z,10.50
2017-09-05T08:46:36.577Z,11.90
2017-09-05T08:49:04.207Z,11.40
2017-09-05T08:51:31.861Z,10.20
2017-09-05T08:53:59.473Z,10.30
2017-09-05T08:56:27.081Z,11.40
2017-09-05T08:58:54.713Z,9.40
2017-09-05T09:01:22.314Z,9.60
2017-09-05T09:03:49.943Z,10.40
2017-09-05T09:06:17.550Z,11.00
2017-09-05T09:08:45.165Z,10.10
2017-09-05T09:11:12.811Z,10.70
2017-09-05T09:13:40.420Z,10.60
2017-09-05T09:16:08.074Z,11.80
2017-09-05T09:18:35.680Z,11.50
2017-09-05T09:21:03.284Z,11.90
2017-09-05T09:23:30.913Z,9.70
2017-09-05T09:25:58.516Z,10.80
2017-09-05T09:28:26.161Z,8.80
2017-09-05T09:30:53.764Z,9.40
2017-09-05T09:33:21.478Z,10.70
2017-09-05T09:35:49.101Z,10.10
2017-09-05T09:38:16.704Z,9.20
2017-09-05T09:40:44.354Z,10.60
2017-09-05T09:43:11.965Z,10.10
2017-09-05T09:45:39.559Z,9.90
2017-09-05T09:48:07.190Z,10.50
2017-09-05T09:50:34.798Z,11.00
2017-09-05T09:53:02.432Z,11.00
2017-09-05T09:55:30.036Z,10.80
2017-09-05T09:57:57.641Z,11.60
2017-09-05T10:00:25.255Z,9.80
2017-09-05T10:02:52.851Z,10.70
2017-09-05T11:27:17.653Z,10.70
2017-09-05T11:29:45.279Z,15.00
2017-09-05T11:32:12.926Z,14.10
2017-09-05T11:34:40.546Z,14.70
2017-09-05T11:37:08.143Z,14.20
2017-09-05T11:39:35.772Z,16.10
2017-09-05T11:42:03.418Z,14.90
2017-09-05T11:44:31.054Z,16.70
2017-09-05T11:46:58.674Z,15.30
2017-09-05T11:49:26.285Z,16.40
2017-09-05T11:51:53.915Z,16.50
2017-09-05T11:54:21.531Z,16.20
2017-09-05T11:56:49.940Z,16.00
2017-09-05T11:59:17.577Z,16.90
2017-09-05T12:01:45.184Z,16.20
2017-09-05T12:04:12.821Z,15.60
2017-09-05T12:06:40.435Z,14.90
2017-09-05T12:09:08.082Z,15.40
2017-09-05T12:11:35.684Z,18.00
2017-09-05T12:14:03.300Z,16.40
2017-09-05T12:16:30.934Z,17.60
2017-09-05T12:18:58.571Z,17.40
2017-09-05T12:21:26.219Z,16.90
2017-09-05T12:23:53.838Z,18.30
2017-09-05T12:26:21.447Z,17.60
2017-09-05T12:28:49.122Z,17.10
2017-09-05T12:31:16.736Z,15.40
2017-09-05T12:33:44.385Z,18.60
2017-09-05T12:36:11.998Z,18.10
2017-09-05T12:38:39.604Z,17.10
2017-09-05T12:41:07.232Z,15.60
2017-09-05T12:43:34.826Z,16.90
2017-09-05T12:46:02.553Z,17.50
2017-09-05T12:48:30.169Z,16.80
2017-09-05T12:50:57.806Z,19.10
2017-09-05T12:53:25.463Z,16.50
2017-09-05T12:55:53.068Z,17.90
2017-09-05T12:58:20.716Z,16.80
2017-09-05T13:00:48.320Z,15.00
2017-09-05T13:03:15.929Z,16.10
2017-09-05T13:05:43.567Z,15.60
2017-09-05T13:08:11.168Z,16.50
2017-09-05T13:10:38.815Z,15.40
2017-09-05T13:13:06.432Z,15.20
2017-09-05T13:15:34.041Z,14.90
2017-09-05T13:18:01.677Z,14.60
2017-09-05T13:20:29.285Z,12.70
2017-09-05T13:22:56.916Z,12.50
2017-09-05T13:25:24.520Z,12.50
2017-09-05T13:27:52.142Z,11.90
2017-09-05T13:30:19.767Z,10.90
2017-09-05T13:32:47.835Z,11.60
2017-09-05T13:35:15.482Z,12.00
2017-09-05T13:37:43.097Z,10.90
2017-09-05T13:40:10.692Z,11.30
2017-09-05T13:42:38.330Z,10.90
2017-09-05T13:45:05.927Z,11.00
2017-09-05T13:47:33.568Z,10.80
2017-09-05T13:50:01.179Z,10.40
2017-09-05T13:52:28.793Z,10.80
2017-09-05T13:54:56.405Z,9.50
2017-09-05T13:57:23.999Z,10.00
2017-09-05T13:59:51.648Z,8.90
2017-09-05T14:02:19.253Z,9.80
2017-09-05T14:04:46.867Z,10.20
2017-09-05T14:07:14.493Z,9.10
2017-09-05T14:09:42.100Z,9.90
2017-09-05T14:12:09.742Z,9.40
2017-09-05T14:14:37.345Z,8.80
2017-09-05T14:17:04.944Z,8.70
2017-09-05T14:19:32.568Z,8.70
2017-09-05T14:22:00.181Z,10.90
2017-09-05T14:24:27.820Z,9.20
2017-09-05T14:26:55.422Z,11.10
2017-09-05T14:29:23.032Z,10.60
2017-09-05T14:31:50.670Z,11.60
2017-09-05T14:34:18.271Z,11.30
2017-09-05T14:36:45.913Z,13.40
2017-09-05T14:39:13.512Z,13.80
2017-09-05T14:41:41.132Z,14.40
2017-09-05T14:44:08.765Z,14.80
2017-09-05T14:46:36.379Z,14.60
2017-09-05T14:49:04.023Z,15.40
2017-09-05T14:51:31.640Z,14.60
2017-09-05T14:53:59.250Z,16.60
2017-09-05T14:56:26.897Z,16.10
2017-09-05T14:58:54.514Z,14.70
2017-09-05T15:01:22.147Z,16.00
2017-09-05T15:03:49.757Z,16.80
2017-09-05T15:06:17.368Z,16.70
2017-09-05T15:08:44.999Z,16.90
2017-09-05T15:11:12.619Z,16.80
2017-09-05T15:13:40.261Z,17.30
2017-09-05T15:16:07.890Z,17.20
2017-09-05T15:18:35.517Z,16.10
2017-09-05T15:21:03.153Z,16.80
2017-09-05T15:23:30.751Z,17.90
2017-09-05T15:25:58.407Z,17.80
2017-09-05T15:28:26.016Z,17.10
2017-09-05T15:30:53.634Z,16.50
2017-09-05T15:33:21.271Z,17.00
2017-09-05T15:35:48.878Z,17.00
2017-09-05T15:38:16.530Z,17.20
2017-09-05T15:40:44.123Z,19.00
2017-09-05T15:43:11.723Z,18.60
2017-09-05T15:45:39.361Z,20.00
2017-09-05T15:48:07.066Z,18.30
2017-09-05T15:50:34.820Z,18.80
2017-09-05T15:53:02.441Z,19.40
2017-09-05T15:55:30.869Z,20.20
2017-09-05T15:57:58.493Z,19.40
2017-09-05T16:00:26.111Z,19.10
2017-09-05T16:02:53.747Z,19.70
2017-09-05T16:05:21.363Z,20.00
2017-09-05T16:07:48.981Z,19.50
2017-09-05T16:10:16.610Z,20.10
2017-09-05T16:12:44.211Z,20.90
2017-09-05T16:15:11.861Z,20.80
2017-09-05T16:17:39.466Z,21.10
2017-09-05T16:20:07.076Z,21.80
2017-09-05T16:22:34.724Z,21.20
2017-09-05T16:25:02.342Z,20.50
2017-09-05T16:27:30.002Z,21.00
2017-09-05T16:29:57.629Z,21.30
2017-09-05T16:32:25.260Z,22.30
2017-09-05T16:34:52.899Z,22.00
2017-09-05T16:37:20.504Z,23.70
2017-09-05T16:39:48.149Z,24.50
2017-09-05T16:42:15.756Z,25.70
2017-09-05T16:44:43.373Z,22.90
2017-09-05T16:47:11.008Z,26.20
2017-09-05T16:49:38.645Z,26.60
2017-09-05T16:52:06.291Z,25.00
2017-09-05T16:54:33.938Z,28.90
2017-09-05T16:57:01.536Z,28.10
2017-09-05T16:59:29.186Z,27.90
2017-09-05T17:01:56.829Z,31.20
2017-09-05T17:04:24.626Z,30.80
2017-09-05T17:06:52.246Z,36.20
2017-09-05T17:09:20.018Z,36.60
2017-09-05T17:11:47.654Z,36.40
2017-09-05T17:14:15.292Z,38.10
2017-09-05T17:16:42.941Z,39.30
2017-09-05T17:19:10.550Z,40.60
2017-09-05T17:21:38.152Z,41.00
2017-09-05T17:24:05.944Z,39.80
2017-09-05T17:26:33.603Z,40.50
2017-09-05T17:29:01.313Z,43.00
2017-09-05T17:31:28.921Z,42.90
2017-09-05T17:33:56.515Z,43.40
2017-09-05T17:36:24.313Z,43.40
2017-09-05T17:38:51.959Z,46.10
2017-09-05T17:41:19.740Z,47.70
2017-09-05T17:43:47.357Z,49.30
2017-09-05T17:46:15.100Z,49.00
2017-09-05T17:48:42.921Z,52.20
2017-09-05T17:51:10.716Z,51.30
2017-09-05T17:53:38.404Z,53.60
2017-09-05T17:56:06.029Z,54.20
2017-09-05T17:58:33.667Z,54.50
2017-09-05T18:01:01.348Z,53.10
2017-09-05T18:03:29.005Z,53.80
2017-09-05T18:05:56.918Z,53.60
2017-09-05T18:08:24.553Z,54.10
2017-09-05T18:10:52.194Z,54.50
2017-09-05T18:13:19.853Z,54.90
2017-09-05T18:15:47.498Z,56.10
2017-09-05T18:18:15.162Z,56.90
2017-09-05T18:20:42.810Z,56.30
2017-09-05T18:23:10.544Z,57.40
2017-09-05T18:25:38.228Z,59.60
2017-09-05T18:28:05.864Z,61.40
2017-09-05T18:30:33.537Z,61.60
2017-09-05T18:33:01.181Z,62.50
2017-09-05T18:35:28.835Z,62.60
2017-09-05T18:37:56.761Z,62.20
2017-09-05T18:40:24.407Z,64.10
2017-09-05T18:42:52.095Z,65.10
2017-09-05T18:45:19.721Z,65.50
2017-09-05T18:47:47.353Z,64.90
2017-09-05T18:50:15.008Z,65.00
2017-09-05T18:52:43.158Z,66.30
2017-09-05T18:55:10.827Z,67.60
2017-09-05T18:57:38.595Z,67.40
2017-09-05T19:00:06.238Z,68.40
2017-09-05T19:02:33.880Z,67.80
2017-09-05T19:05:01.514Z,67.90
2017-09-05T19:07:29.201Z,68.00
2017-09-05T19:09:56.828Z,67.30
2017-09-05T19:12:24.468Z,68.60
2017-09-05T19:14:52.262Z,68.20
2017-09-05T19:17:19.914Z,68.60
2017-09-05T19:19:47.586Z,68.30
2017-09-05T19:22:15.357Z,69.30
2017-09-05T19:24:42.984Z,70.30
2017-09-05T19:27:10.640Z,69.50
2017-09-05T19:29:38.275Z,70.00
2017-09-05T19:32:05.945Z,68.00
2017-09-05T19:34:33.574Z,67.60
2017-09-05T19:37:01.344Z,67.50
2017-09-05T19:39:29.001Z,68.90
2017-09-05T19:41:56.631Z,69.60
2017-09-05T19:44:24.309Z,70.20
2017-09-05T19:46:52.081Z,69.20
2017-09-05T19:49:19.847Z,67.90
2017-09-05T19:51:47.517Z,68.40
2017-09-05T19:54:15.157Z,69.60
2017-09-05T19:56:42.830Z,70.30
2017-09-05T19:59:10.467Z,70.20
2017-09-05T20:01:38.106Z,71.70
2017-09-05T20:04:05.903Z,71.90
2017-09-05T20:06:33.800Z,71.70
2017-09-05T20:09:01.564Z,72.20
2017-09-05T20:11:30.004Z,73.00
2017-09-05T20:13:57.653Z,72.10
2017-09-05T20:16:25.558Z,71.90
2017-09-05T20:18:54.153Z,71.60
2017-09-05T20:21:21.959Z,73.00
2017-09-05T20:23:49.769Z,71.80
2017-09-05T20:26:17.402Z,71.60
2017-09-05T20:28:45.061Z,73.20
2017-09-05T20:31:12.688Z,74.20
2017-09-05T20:33:40.497Z,73.30
2017-09-05T20:36:08.132Z,72.70
2017-09-05T20:38:39.898Z,72.80
2017-09-05T20:41:07.543Z,72.80
2017-09-05T20:43:35.178Z,73.80
2017-09-05T20:46:03.264Z,73.60
2017-09-05T20:48:36.861Z,73.50
2017-09-05T20:51:04.749Z,73.30
2017-09-05T20:53:33.719Z,74.80
2017-09-05T20:56:01.764Z,73.70
2017-09-05T20:58:30.320Z,73.20
2017-09-05T21:00:57.941Z,72.80
2017-09-05T21:03:25.608Z,74.70
2017-09-05T21:05:53.230Z,72.40
2017-09-05T21:08:20.870Z,73.40
2017-09-05T21:10:48.514Z,74.20
2017-09-05T21:13:16.145Z,73.80
2017-09-05T21:15:43.822Z,74.70
2017-09-05T21:18:11.454Z,74.80
2017-09-05T21:20:39.075Z,75.10
2017-09-05T21:23:06.729Z,76.30
2017-09-05T21:25:34.372Z,75.40
2017-09-05T21:28:02.043Z,74.90
2017-09-05T21:30:29.708Z,74.40
2017-09-05T21:32:57.349Z,75.00
2017-09-05T21:35:25.013Z,74.90
2017-09-05T21:37:52.652Z,75.20
2017-09-05T21:40:20.322Z,72.90
2017-09-05T21:42:47.952Z,72.90
2017-09-05T21:45:15.590Z,72.50
2017-09-05T21:47:43.247Z,73.10
2017-09-05T21:50:10.885Z,72.80
2017-09-05T21:52:38.628Z,73.70
2017-09-05T21:55:06.263Z,74.50
2017-09-05T21:57:33.897Z,74.70
2017-09-05T22:00:01.553Z,74.70
2017-09-05T22:02:29.192Z,74.90
2017-09-05T22:04:56.864Z,74.80
2017-09-05T22:07:24.490Z,75.50
2017-09-05T22:09:52.112Z,76.20
2017-09-05T22:12:19.770Z,76.90
2017-09-05T22:14:53.124Z,76.40
2017-09-05T22:17:20.792Z,76.30
2017-09-05T22:19:54.164Z,76.30
2017-09-05T22:22:21.832Z,76.80
2017-09-05T22:27:57.583Z,76.50
2017-09-05T22:30:25.202Z,77.60
2017-09-05T22:32:52.837Z,77.90
2017-09-05T22:35:20.494Z,78.70
2017-09-05T22:37:48.121Z,78.80
2017-09-05T22:40:15.785Z,79.00
2017-09-05T22:42:43.409Z,79.60
2017-09-05T22:45:11.040Z,79.90
2017-09-05T22:47:38.699Z,80.00
2017-09-05T22:50:06.319Z,80.90
2017-09-05T22:52:33.994Z,81.10
2017-09-05T22:55:01.624Z,81.30
2017-09-05T22:57:29.251Z,81.10
2017-09-05T22:59:56.890Z,81.70
2017-09-05T23:02:24.524Z,81.40
2017-09-05T23:04:52.180Z,81.80
2017-09-05T23:07:19.819Z,81.60
2017-09-05T23:09:47.442Z,81.60
2017-09-05T23:12:15.108Z,81.80
2017-09-05T23:14:42.731Z,82.40
2017-09-05T23:17:10.389Z,82.30
2017-09-05T23:19:38.023Z,82.80
2017-09-05T23:22:05.681Z,83.00
2017-09-05T23:24:33.342Z,83.30
2017-09-05T23:27:00.980Z,83.80
2017-09-05T23:29:28.657Z,84.00
2017-09-05T23:31:56.275Z,84.70
2017-09-05T23:34:23.909Z,84.90
2017-09-05T23:36:51.575Z,85.20
2017-09-05T23:39:19.209Z,84.60
2017-09-05T23:41:46.881Z,84.40
2017-09-05T23:44:14.521Z,84.50
2017-09-05T23:46:42.157Z,83.90
2017-09-05T23:49:09.808Z,84.90
2017-09-05T23:51:37.441Z,85.30
2017-09-05T23:54:05.099Z,85.60
2017-09-05T23:56:32.734Z,86.40
2017-09-05T23:59:00.360Z,86.50
